Terminal Aerodrome Forecast
Issued by NWS Rapid City, SD

Home | Current Version | Previous Version | Graphics & Text | Print | Product List | Glossary On
Versions: 1 2 3 4 5 6 7 8 9 10 11 12 13 14 15 16 17 18 19 20
124
FTUS43 KUNR 282328
TAFRAP
TAF
KRAP 282328Z 2900/2924 03009KT P6SM OVC011
     FM290800 03004KT 2SM BR OVC005
     FM290900 03003KT 1SM BR OVC003
     FM291700 01010KT P6SM OVC007
     FM292000 06009KT P6SM OVC012=

USA.gov is the U.S. government's official web portal to all federal, state and local government web resources and services.